KAFF/AFF METAR and TAF weather

Enter ICAO airport designator
Station Type Date Time Source
KAFF METAR 2019/06/16 05:58 UTC NOAA

KAFF 160558Z AUTO 36005KT 10SM CLR 08/07 A3015 RMK AO2 SLP149 T00800074 10165 20080 50005


Station Type Date Time Source
KAFF Decoded METAR 2019/06/16 05:58 UTC NOAA

Air Force Academy, CO, United States (KAFF) 38-58N 104-49W 1999M
Jun 16, 2019 - 01:58 AM EDT / 2019.06.16 0558 UTC
Wind: from the N (360 degrees) at 6 MPH (5 KT):0
Visibility: 10 mile(s):0
Sky conditions: clear
Temperature: 46.4 F (8.0 C)
Dew Point: 45.3 F (7.4 C)
Relative Humidity: 95%
Pressure (altimeter): 30.15 in. Hg (1020 hPa)
Pressure tendency: 0.01 inches (0.5 hPa) higher than three hours ago
ob: KAFF 160558Z AUTO 36005KT 10SM CLR 08/07 A3015 RMK AO2 SLP149 T00800074 10165 20080 50005
cycle: 6

Station Type Date Time Source
KAFF TAF 2019/06/15 17:42 UTC NOAA

TAF
AMD KAFF 151735Z 1517/1617 35012G18KT 9999 VCTS BKN080CB QNH3009INS
TEMPO 1518/1602 VRB25G35KT 8000 TSRA BKN050CB
BECMG 1602/1603 36006KT 9999 VCSH BKN030 QNH3014INS
BECMG 1604/1605 36006KT 9999 NSW SCT030 QNH3015INS
BECMG 1613/1614 VRB06KT 9999 FEW100 QNH3013INS
BECMG 1614/1615 16012KT 9999 SCT015 BKN030 QNH3013INS TX21/1522Z TN09/1520Z

Example: see airport list